< < Back
Terminal Aerodrome Forecast


Current Version              Previous Versions:   1  2  3  4  5  6  7  8  9  

Terminal Aerodrome Forecast

134
FTUS42 KTAE 061732
TAFVLD
TAF
KVLD 061732Z 0618/0718 08007KT P6SM VCSH OVC080
     FM070300 01004KT P6SM BKN050
     FM071500 36009G18KT P6SM SKC=

Latest METAR

618
SAUS70 KWBC 070400 RRL
MTRVLD
METAR KVLD 070353Z AUTO 02007KT 10SM FEW014 OVC029 06/04 A3016 RMK AO2
RAB07E22 SLP223 P0000 T00560039


USA.gov is the U.S. government's official web portal to all federal, state and local government web resources and services.